createdAt,value
2023-05-01T00:01:57.105Z,99677.09
2023-05-01T00:04:57.105Z,99680.50
2023-05-01T00:07:57.011Z,99682.27
2023-05-01T00:10:58.024Z,99687.48
2023-05-01T00:13:58.219Z,99691.73
2023-05-01T00:16:58.376Z,99695.11
2023-05-01T00:19:59.229Z,99705.71
2023-05-01T00:23:00.001Z,99711.08
2023-05-01T00:26:01.988Z,99713.52
2023-05-01T00:29:02.029Z,99716.13
2023-05-01T00:32:08.038Z,99717.13
2023-05-01T00:35:08.075Z,99718.08
2023-05-01T00:38:08.065Z,99722.80
2023-05-01T00:41:08.208Z,99725.34
2023-05-01T00:44:08.086Z,99732.59
2023-05-01T00:47:08.057Z,99734.29
2023-05-01T00:50:08.086Z,99730.02
2023-05-01T00:53:09.018Z,99733.67
2023-05-01T00:56:10.090Z,99737.13
2023-05-01T00:59:11.130Z,99741.56
2023-05-01T01:02:11.125Z,99749.33
2023-05-01T01:05:11.096Z,99749.80
2023-05-01T01:08:12.155Z,99762.39
2023-05-01T01:11:21.089Z,99765.28
2023-05-01T01:14:24.097Z,99776.55
2023-05-01T01:17:24.076Z,99775.58
2023-05-01T01:20:24.087Z,99776.70
2023-05-01T01:23:34.137Z,99775.04
2023-05-01T01:26:35.150Z,99774.38
2023-05-01T01:29:35.171Z,99768.08
2023-05-01T01:32:54.307Z,99763.32
2023-05-01T01:35:56.156Z,99762.15
2023-05-01T01:39:06.138Z,99759.28
2023-05-01T01:42:07.152Z,99761.92
2023-05-01T01:45:09.158Z,99762.95
2023-05-01T01:48:09.168Z,99769.44
2023-05-01T01:51:11.160Z,99770.54
2023-05-01T01:54:11.232Z,99770.90
2023-05-01T01:57:11.150Z,99776.34
2023-05-01T02:00:15.478Z,99775.06
2023-05-01T02:03:18.208Z,99784.39
2023-05-01T02:06:18.212Z,99790.52
2023-05-01T02:09:19.175Z,99795.60
2023-05-01T02:12:19.207Z,99797.42
2023-05-01T02:15:20.180Z,99801.44
2023-05-01T02:18:21.220Z,99795.51
2023-05-01T02:21:21.335Z,99802.08
2023-05-01T02:24:22.253Z,99802.44
2023-05-01T02:27:26.195Z,99802.55
2023-05-01T02:30:26.280Z,99804.17
2023-05-01T02:33:26.219Z,99798.14
2023-05-01T02:36:26.255Z,99794.01
2023-05-01T02:39:26.237Z,99793.05
2023-05-01T02:42:26.221Z,99794.59
2023-05-01T02:45:35.256Z,99801.13
2023-05-01T02:48:37.244Z,99805.58
2023-05-01T02:51:39.330Z,99813.66
2023-05-01T02:54:39.293Z,99815.08
2023-05-01T02:57:39.307Z,99817.29
2023-05-01T03:00:41.255Z,99819.29
2023-05-01T03:03:41.305Z,99821.31
2023-05-01T03:06:41.324Z,99827.92
2023-05-01T03:09:41.262Z,99833.89
2023-05-01T03:12:41.333Z,99836.13
2023-05-01T03:15:41.330Z,99843.21
2023-05-01T03:18:41.311Z,99852.59
2023-05-01T03:21:43.334Z,99851.05
2023-05-01T03:24:43.343Z,99857.08
2023-05-01T03:27:43.298Z,99857.77
2023-05-01T03:30:43.362Z,99864.78
2023-05-01T03:33:43.324Z,99860.33
2023-05-01T03:36:43.334Z,99863.05
2023-05-01T03:39:43.334Z,99861.39
2023-05-01T03:42:54.418Z,99866.13
2023-05-01T03:45:54.436Z,99871.49
2023-05-01T03:48:55.341Z,99878.60
2023-05-01T03:51:56.472Z,99881.73
2023-05-01T03:54:56.358Z,99886.45
2023-05-01T03:58:09.417Z,99892.17
2023-05-01T04:01:09.394Z,99891.30
2023-05-01T04:04:09.558Z,99886.84
2023-05-01T04:07:11.344Z,99892.84
2023-05-01T04:10:13.389Z,99902.84
2023-05-01T04:13:20.351Z,99903.80
2023-05-01T04:16:20.449Z,99907.40
2023-05-01T04:19:22.553Z,99913.02
2023-05-01T04:22:24.488Z,99915.05
2023-05-01T04:25:25.431Z,99919.13
2023-05-01T04:28:29.425Z,99921.50
2023-05-01T04:31:29.503Z,99919.06
2023-05-01T04:34:29.427Z,99925.56
2023-05-01T04:37:29.415Z,99924.89
2023-05-01T04:40:30.429Z,99930.70
2023-05-01T04:43:31.540Z,99926.79
2023-05-01T04:46:32.509Z,99931.13
2023-05-01T04:49:32.438Z,99932.20
2023-05-01T04:52:32.542Z,99940.90
2023-05-01T04:55:32.432Z,99943.52
2023-05-01T04:58:37.456Z,99944.16
2023-05-01T05:01:39.585Z,99951.05
2023-05-01T05:04:39.472Z,99947.92
2023-05-01T05:07:39.489Z,99957.16
2023-05-01T05:10:57.506Z,99948.62
2023-05-01T05:14:19.494Z,99956.65
2023-05-01T05:17:19.525Z,99956.08
2023-05-01T05:20:19.499Z,99955.86
2023-05-01T05:23:19.573Z,99961.05
2023-05-01T05:26:19.649Z,99963.42
2023-05-01T05:29:19.528Z,99963.77
2023-05-01T05:32:19.948Z,99970.73
2023-05-01T05:35:20.605Z,99968.90
2023-05-01T05:38:15.216Z,99973.21
2023-05-01T05:41:17.542Z,99975.05
2023-05-01T05:44:18.570Z,99972.50
2023-05-01T05:47:18.555Z,99972.92
2023-05-01T05:50:19.678Z,99975.48
2023-05-01T05:53:20.842Z,99974.83
2023-05-01T05:56:21.624Z,99982.35
2023-05-01T05:59:21.615Z,99990.52
2023-05-01T06:02:21.704Z,99991.94
2023-05-01T06:05:21.638Z,100004.58
2023-05-01T06:08:22.749Z,100007.27
2023-05-01T06:11:22.598Z,99999.73
2023-05-01T06:14:22.695Z,100001.31
2023-05-01T06:17:22.665Z,100015.91
2023-05-01T06:20:22.780Z,100015.56
2023-05-01T06:23:22.861Z,100016.95
2023-05-01T06:26:43.084Z,100020.08
2023-05-01T06:29:45.156Z,100023.36
2023-05-01T06:32:47.691Z,100026.83
2023-05-01T06:35:49.303Z,100039.71
2023-05-01T06:38:56.003Z,100041.44
2023-05-01T06:41:58.727Z,100042.21
2023-05-01T06:45:04.795Z,100044.65
2023-05-01T06:48:04.711Z,100039.77
2023-05-01T06:51:05.681Z,100046.86
2023-05-01T06:54:07.516Z,100042.92
2023-05-01T06:57:07.675Z,100045.33
2023-05-01T07:00:07.733Z,100044.45
2023-05-01T07:03:08.799Z,100046.14
2023-05-01T07:06:09.037Z,100043.03
2023-05-01T07:09:09.289Z,100046.36
2023-05-01T07:12:09.928Z,100050.71
2023-05-01T07:15:09.780Z,100048.88
2023-05-01T07:18:11.786Z,100062.16
2023-05-01T07:21:06.230Z,100066.23
2023-05-01T07:24:08.792Z,100059.39
2023-05-01T07:27:08.781Z,100082.15
2023-05-01T07:30:08.742Z,100067.00
2023-05-01T07:33:10.002Z,100081.69
2023-05-01T07:36:10.749Z,100086.33
2023-05-01T07:39:10.719Z,100105.27
2023-05-01T07:42:10.750Z,100103.87
2023-05-01T07:45:10.793Z,100105.09
2023-05-01T07:48:10.805Z,100107.81
2023-05-01T07:51:10.863Z,100104.67
2023-05-01T07:54:10.787Z,100110.00
2023-05-01T07:57:10.811Z,100110.23
2023-05-01T08:00:10.846Z,100112.42
2023-05-01T08:03:11.027Z,100118.96
2023-05-01T08:06:12.006Z,100119.23
2023-05-01T08:09:11.879Z,100113.40
2023-05-01T08:12:17.874Z,100117.85
2023-05-01T08:15:17.974Z,100123.14
2023-05-01T08:18:17.836Z,100118.30
2023-05-01T08:21:17.793Z,100127.14
2023-05-01T08:24:17.854Z,100123.60
2023-05-01T08:27:17.901Z,100124.48
2023-05-01T08:30:18.454Z,100120.75
2023-05-01T08:33:18.893Z,100131.77
2023-05-01T08:36:20.671Z,100128.72
2023-05-01T08:39:21.881Z,100132.54
2023-05-01T08:42:21.900Z,100134.04
2023-05-01T08:45:22.899Z,100130.23
2023-05-01T08:48:23.873Z,100133.61
2023-05-01T08:51:28.168Z,100134.81
2023-05-01T08:54:27.897Z,100138.05
2023-05-01T08:57:28.951Z,100147.25
2023-05-01T09:00:31.905Z,100160.45
2023-05-01T09:03:32.006Z,100156.24
2023-05-01T09:06:34.056Z,100163.86
2023-05-01T09:09:35.046Z,100158.23
2023-05-01T09:12:41.994Z,100161.79
2023-05-01T09:15:41.949Z,100164.70
2023-05-01T09:18:42.947Z,100172.34
2023-05-01T09:21:42.928Z,100174.27
2023-05-01T09:24:42.967Z,100171.73
2023-05-01T09:27:46.936Z,100180.66
2023-05-01T09:30:49.950Z,100178.90
2023-05-01T09:33:49.992Z,100193.90
2023-05-01T09:36:49.982Z,100182.50
2023-05-01T09:39:50.010Z,100185.75
2023-05-01T09:42:51.004Z,100186.92
2023-05-01T09:45:51.977Z,100180.46
2023-05-01T09:48:53.030Z,100180.36
2023-05-01T09:51:53.068Z,100173.52
2023-05-01T09:54:54.050Z,100185.16
2023-05-01T09:57:55.003Z,100185.88
2023-05-01T10:01:01.042Z,100185.25
2023-05-01T10:04:06.091Z,100182.63
2023-05-01T10:07:07.105Z,100187.23
2023-05-01T10:10:07.137Z,100191.52
2023-05-01T10:13:07.035Z,100182.85
2023-05-01T10:16:10.064Z,100190.39
2023-05-01T10:19:13.297Z,100189.80
2023-05-01T10:22:14.135Z,100184.65
2023-05-01T10:25:14.077Z,100186.54
2023-05-01T10:28:16.062Z,100192.85
2023-05-01T10:31:16.096Z,100191.45
2023-05-01T10:34:17.096Z,100194.80
2023-05-01T10:37:23.274Z,100181.60
2023-05-01T10:40:41.105Z,100187.04
2023-05-01T10:43:41.130Z,100199.89
2023-05-01T10:46:41.221Z,100201.28
2023-05-01T10:50:02.276Z,100209.54
2023-05-01T10:53:22.137Z,100201.45
2023-05-01T10:56:35.081Z,100207.30
2023-05-01T10:59:35.167Z,100191.48
2023-05-01T11:02:36.258Z,100198.91
2023-05-01T11:05:57.268Z,100209.25
2023-05-01T11:08:59.189Z,100201.82
2023-05-01T11:12:00.190Z,100205.90
2023-05-01T11:15:10.140Z,100200.93
2023-05-01T11:18:12.264Z,100203.04
2023-05-01T11:21:12.162Z,100208.38
2023-05-01T11:24:15.258Z,100201.40
2023-05-01T11:27:16.198Z,100206.70
2023-05-01T11:30:16.201Z,100206.01
2023-05-01T11:33:20.639Z,100214.05
2023-05-01T11:36:21.353Z,100210.52
2023-05-01T11:39:21.817Z,100205.11
2023-05-01T11:42:22.873Z,100203.45
2023-05-01T11:45:23.272Z,100203.14
2023-05-01T11:48:29.175Z,100201.11
2023-05-01T11:51:41.364Z,100213.70
2023-05-01T11:55:18.111Z,100211.42
2023-05-01T11:58:24.056Z,100213.42
2023-05-01T12:01:30.282Z,100205.95
2023-05-01T12:04:39.305Z,100215.60
2023-05-01T12:07:40.280Z,100223.58
2023-05-01T12:10:40.394Z,100214.02
2023-05-01T12:13:41.961Z,100219.00
2023-05-01T12:16:43.314Z,100221.15
2023-05-01T12:19:43.302Z,100223.66
2023-05-01T12:22:43.276Z,100224.77
2023-05-01T12:25:43.446Z,100225.50
2023-05-01T12:28:43.294Z,100227.05
2023-05-01T12:31:43.372Z,100227.36
2023-05-01T12:34:43.360Z,100220.62
2023-05-01T12:37:44.354Z,100224.61
2023-05-01T12:40:44.305Z,100227.23
2023-05-01T12:43:44.503Z,100233.38
2023-05-01T12:46:44.414Z,100226.35
2023-05-01T12:49:44.342Z,100234.00
2023-05-01T12:52:44.305Z,100232.64
2023-05-01T12:55:44.567Z,100240.78
2023-05-01T12:58:51.347Z,100240.05
2023-05-01T13:01:52.414Z,100238.55
2023-05-01T13:04:53.435Z,100242.18
2023-05-01T13:08:00.356Z,100241.77
2023-05-01T13:11:01.484Z,100241.05
2023-05-01T13:14:01.364Z,100239.40
2023-05-01T13:17:01.386Z,100239.67
2023-05-01T13:20:06.453Z,100242.66
2023-05-01T13:23:06.388Z,100242.34
2023-05-01T13:26:10.451Z,100237.55
2023-05-01T13:29:11.383Z,100247.09
2023-05-01T13:32:12.524Z,100251.86
2023-05-01T13:35:14.411Z,100248.46
2023-05-01T13:38:29.393Z,100247.02
2023-05-01T13:41:30.449Z,100253.95
2023-05-01T13:44:30.509Z,100252.95
2023-05-01T13:47:32.556Z,100258.17
2023-05-01T13:50:33.443Z,100260.42
2023-05-01T13:53:33.674Z,100261.13
2023-05-01T13:56:33.469Z,100257.99
2023-05-01T13:59:33.417Z,100265.48
2023-05-01T14:02:33.871Z,100263.23
2023-05-01T14:05:36.457Z,100263.92
2023-05-01T14:08:37.510Z,100261.48
2023-05-01T14:11:37.492Z,100264.79
2023-05-01T14:14:37.514Z,100264.79
2023-05-01T14:17:50.484Z,100271.56
2023-05-01T14:21:08.185Z,100273.30
2023-05-01T14:24:08.911Z,100274.65
2023-05-01T14:27:10.661Z,100277.58
2023-05-01T14:30:14.608Z,100272.82
2023-05-01T14:33:17.676Z,100282.01
2023-05-01T14:36:18.527Z,100284.91
2023-05-01T14:39:18.496Z,100283.84
2023-05-01T14:42:20.568Z,100282.45
2023-05-01T14:45:31.503Z,100293.83
2023-05-01T14:48:37.551Z,100296.60
2023-05-01T14:51:37.545Z,100295.58
2023-05-01T14:54:37.545Z,100296.11
2023-05-01T14:57:37.642Z,100297.52
2023-05-01T15:00:37.553Z,100297.52
2023-05-01T15:03:37.828Z,100297.84
2023-05-01T15:06:37.666Z,100297.13
2023-05-01T15:09:37.632Z,100299.89
2023-05-01T15:12:37.581Z,100299.69
2023-05-01T15:15:37.612Z,100312.17
2023-05-01T15:18:37.621Z,100310.08
2023-05-01T15:21:37.608Z,100309.67
2023-05-01T15:24:39.611Z,100316.85
2023-05-01T15:27:39.611Z,100315.24
2023-05-01T15:30:40.567Z,100322.33
2023-05-01T15:33:42.979Z,100322.80
2023-05-01T15:36:42.700Z,100328.95
2023-05-01T15:39:43.603Z,100324.88
2023-05-01T15:42:43.722Z,100325.95
2023-05-01T15:45:48.852Z,100331.88
2023-05-01T15:48:48.800Z,100334.08
2023-05-01T15:51:49.689Z,100339.43
2023-05-01T15:54:52.866Z,100345.35
2023-05-01T15:57:54.668Z,100341.40
2023-05-01T16:00:54.706Z,100346.00
2023-05-01T16:03:56.856Z,100347.79
2023-05-01T16:06:56.666Z,100350.77
2023-05-01T16:09:57.965Z,100354.06
2023-05-01T16:12:59.676Z,100361.73
2023-05-01T16:15:59.746Z,100367.52
2023-05-01T16:18:59.703Z,100370.20
2023-05-01T16:22:00.765Z,100378.41
2023-05-01T16:25:01.702Z,100378.55
2023-05-01T16:28:01.696Z,100383.33
2023-05-01T16:31:01.771Z,100387.89
2023-05-01T16:33:56.120Z,100393.10
2023-05-01T16:36:58.572Z,100395.52
2023-05-01T16:39:59.040Z,100401.45
2023-05-01T16:43:07.742Z,100405.30
2023-05-01T16:46:07.813Z,100411.35
2023-05-01T16:49:07.816Z,100413.89
2023-05-01T16:52:08.732Z,100418.66
2023-05-01T16:55:09.744Z,100428.83
2023-05-01T16:58:12.781Z,100434.34
2023-05-01T17:01:20.816Z,100439.46
2023-05-01T17:04:20.802Z,100441.16
2023-05-01T17:07:20.754Z,100443.91
2023-05-01T17:10:20.764Z,100445.24
2023-05-01T17:13:21.764Z,100448.08
2023-05-01T17:16:21.932Z,100453.66
2023-05-01T17:19:21.794Z,100455.61
2023-05-01T17:22:22.830Z,100457.21
2023-05-01T17:25:22.818Z,100462.27
2023-05-01T17:28:23.041Z,100463.33
2023-05-01T17:31:22.979Z,100468.87
2023-05-01T17:34:25.459Z,100476.00
2023-05-01T17:37:29.907Z,100476.02
2023-05-01T17:40:31.942Z,100485.58
2023-05-01T17:43:32.938Z,100489.32
2023-05-01T17:46:32.957Z,100491.09
2023-05-01T17:49:32.867Z,100497.56
2023-05-01T17:52:33.909Z,100501.14
2023-05-01T17:55:33.901Z,100506.98
2023-05-01T17:58:34.016Z,100512.29
2023-05-01T18:01:36.991Z,100514.52
2023-05-01T18:04:38.217Z,100516.06
2023-05-01T18:07:47.896Z,100521.58
2023-05-01T18:10:49.096Z,100523.81
2023-05-01T18:13:53.860Z,100532.17
2023-05-01T18:16:54.978Z,100536.39
2023-05-01T18:19:54.894Z,100541.21
2023-05-01T18:22:54.895Z,100541.98
2023-05-01T18:25:55.952Z,100546.05
2023-05-01T18:28:55.917Z,100546.73
2023-05-01T18:31:57.085Z,100545.73
2023-05-01T18:34:58.998Z,100549.71
2023-05-01T18:37:59.919Z,100551.95
2023-05-01T18:41:02.947Z,100562.25
2023-05-01T18:44:02.916Z,100568.60
2023-05-01T18:47:02.921Z,100575.83
2023-05-01T18:50:02.977Z,100575.73
2023-05-01T18:53:02.981Z,100577.92
2023-05-01T18:56:04.032Z,100586.50
2023-05-01T18:59:04.959Z,100589.69
2023-05-01T19:02:06.046Z,100589.28
2023-05-01T19:05:08.033Z,100591.07
2023-05-01T19:08:13.330Z,100593.08
2023-05-01T19:11:13.083Z,100592.98
2023-05-01T19:14:12.976Z,100600.45
2023-05-01T19:17:13.094Z,100598.98
2023-05-01T19:20:12.977Z,100600.92
2023-05-01T19:23:13.005Z,100599.61
2023-05-01T19:26:14.004Z,100602.92
2023-05-01T19:29:14.031Z,100601.39
2023-05-01T19:32:14.145Z,100604.78
2023-05-01T19:35:17.113Z,100607.14
2023-05-01T19:38:17.042Z,100607.79
2023-05-01T19:41:18.045Z,100610.89
2023-05-01T19:44:18.104Z,100612.28
2023-05-01T19:47:18.077Z,100613.91
2023-05-01T19:50:18.065Z,100616.80
2023-05-01T19:53:18.164Z,100617.39
2023-05-01T19:56:18.063Z,100618.80
2023-05-01T19:59:18.164Z,100620.78
2023-05-01T20:02:18.210Z,100623.45
2023-05-01T20:05:19.077Z,100625.38
2023-05-01T20:08:19.157Z,100629.00
2023-05-01T20:11:19.067Z,100629.99
2023-05-01T20:14:19.100Z,100635.34
2023-05-01T20:17:19.211Z,100636.41
2023-05-01T20:20:19.131Z,100640.58
2023-05-01T20:23:24.095Z,100641.55
2023-05-01T20:26:26.134Z,100643.16
2023-05-01T20:29:26.140Z,100640.58
2023-05-01T20:32:26.323Z,100642.80
2023-05-01T20:35:26.122Z,100642.77
2023-05-01T20:38:26.125Z,100646.41
2023-05-01T20:41:26.142Z,100647.98
2023-05-01T20:44:26.149Z,100649.73
2023-05-01T20:47:26.213Z,100651.91
2023-05-01T20:50:27.088Z,100654.27
2023-05-01T20:53:27.194Z,100650.52
2023-05-01T20:56:27.162Z,100653.45
2023-05-01T20:59:27.145Z,100656.77
2023-05-01T21:02:27.223Z,100663.10
2023-05-01T21:05:28.181Z,100661.73
2023-05-01T21:08:28.268Z,100666.42
2023-05-01T21:11:28.173Z,100667.97
2023-05-01T21:14:28.225Z,100671.21
2023-05-01T21:17:28.249Z,100678.06
2023-05-01T21:20:28.270Z,100679.80
2023-05-01T21:23:28.275Z,100680.57
2023-05-01T21:26:28.198Z,100683.36
2023-05-01T21:29:28.197Z,100687.67
2023-05-01T21:32:29.236Z,100688.83
2023-05-01T21:35:29.217Z,100692.27
2023-05-01T21:38:29.209Z,100695.84
2023-05-01T21:41:29.234Z,100702.36
2023-05-01T21:44:29.235Z,100700.34
2023-05-01T21:47:29.260Z,100698.72
2023-05-01T21:50:29.256Z,100703.19
2023-05-01T21:53:30.259Z,100709.38
2023-05-01T21:56:30.265Z,100710.89
2023-05-01T21:59:23.381Z,100716.68
2023-05-01T22:02:23.386Z,100720.48
2023-05-01T22:05:23.356Z,100725.78
2023-05-01T22:08:23.236Z,100731.48
2023-05-01T22:11:23.325Z,100728.27
2023-05-01T22:14:30.927Z,100730.59
2023-05-01T22:17:40.466Z,100728.41
2023-05-01T22:20:40.384Z,100731.14
2023-05-01T22:23:40.302Z,100733.69
2023-05-01T22:26:40.282Z,100736.80
2023-05-01T22:29:40.340Z,100740.05
2023-05-01T22:32:40.330Z,100744.10
2023-05-01T22:35:40.331Z,100745.91
2023-05-01T22:38:40.388Z,100748.40
2023-05-01T22:41:40.290Z,100747.17
2023-05-01T22:44:40.424Z,100743.30
2023-05-01T22:47:40.372Z,100744.81
2023-05-01T22:50:41.476Z,100748.55
2023-05-01T22:53:43.421Z,100746.84
2023-05-01T22:56:43.340Z,100744.05
2023-05-01T22:59:43.634Z,100747.77
2023-05-01T23:02:43.451Z,100748.04
2023-05-01T23:05:43.405Z,100746.98
2023-05-01T23:08:43.417Z,100749.73
2023-05-01T23:11:43.432Z,100752.34
2023-05-01T23:14:43.393Z,100755.11
2023-05-01T23:17:47.449Z,100754.34
2023-05-01T23:20:47.422Z,100753.83
2023-05-01T23:23:49.380Z,100756.67
2023-05-01T23:26:49.832Z,100753.75
2023-05-01T23:29:50.462Z,100750.59
2023-05-01T23:32:50.763Z,100752.16
2023-05-01T23:35:51.452Z,100754.30
2023-05-01T23:38:54.472Z,100755.44
2023-05-01T23:41:56.442Z,100760.48
2023-05-01T23:44:56.507Z,100759.23
2023-05-01T23:47:57.465Z,100765.31
2023-05-01T23:50:57.418Z,100769.35
2023-05-01T23:53:57.509Z,100765.45
2023-05-01T23:56:58.484Z,100769.35
2023-05-01T23:59:59.644Z,100771.77
